Time;durP1;ratioP1;P1;durP2;ratioP2;P2;SDS_P1;SDS_P2;PMS_P1;PMS_P2;Temp;Humidity;BMP_temperature;BMP_pressure;BME280_temperature;BME280_humidity;BME280_pressure;Samples;Min_cycle;Max_cycle;Signal;HPM_P1;HPM_P2
2021/05/31 00:02:01;;;;;;;5.45;4.95;;;;;;;8.76;61.80;95889.38;4951980;28;20113;-63
2021/05/31 00:04:26;;;;;;;5.85;4.88;;;;;;;8.85;61.16;95895.69;4949971;28;20118;-62
2021/05/31 00:07:14;;;;;;;5.75;4.95;;;;;;;8.90;60.97;95894.84;4951930;28;20055;-63
2021/05/31 00:09:42;;;;;;;8.05;4.70;;;;;;;8.86;61.16;95899.13;4952211;28;20138;-62
2021/05/31 00:12:10;;;;;;;7.35;5.05;;;;;;;8.85;61.05;95887.75;4951722;28;20039;-63
2021/05/31 00:14:36;;;;;;;6.55;4.93;;;;;;;8.87;61.49;95895.41;4952695;28;20047;-63
2021/05/31 00:17:02;;;;;;;5.47;4.88;;;;;;;8.65;60.85;95863.16;4951701;28;20043;-63
2021/05/31 00:19:27;;;;;;;6.20;4.70;;;;;;;8.89;61.21;95897.78;4951858;28;20054;-62
2021/05/31 00:21:53;;;;;;;7.53;5.22;;;;;;;8.89;60.99;95890.63;4951718;28;20501;-62
2021/05/31 00:24:19;;;;;;;5.80;5.22;;;;;;;8.98;60.79;95896.16;4951350;28;20442;-63
2021/05/31 00:26:45;;;;;;;6.70;5.07;;;;;;;8.87;61.24;95887.47;4953774;28;20034;-63
2021/05/31 00:29:10;;;;;;;10.25;5.97;;;;;;;8.88;61.78;95894.34;4951888;28;20126;-63
2021/05/31 00:31:39;;;;;;;6.63;4.55;;;;;;;8.91;61.56;95900.97;4951474;28;20147;-62
2021/05/31 00:34:05;;;;;;;6.38;4.85;;;;;;;8.70;62.75;95877.22;4950019;28;20118;-63
2021/05/31 00:36:30;;;;;;;6.70;5.03;;;;;;;8.80;62.10;95882.47;4951620;28;20122;-63
2021/05/31 00:38:56;;;;;;;6.15;5.00;;;;;;;8.83;62.12;95883.75;4951585;28;20639;-63
2021/05/31 00:41:23;;;;;;;7.25;5.25;;;;;;;8.66;61.92;95860.25;4953613;28;20031;-63
2021/05/31 00:43:49;;;;;;;5.63;4.85;;;;;;;8.79;61.88;95886.16;4951040;28;20039;-62
2021/05/31 00:46:15;;;;;;;5.20;4.40;;;;;;;8.77;61.83;95876.91;4949979;28;20374;-63
2021/05/31 00:48:41;;;;;;;5.65;4.82;;;;;;;8.68;62.26;95874.03;4951260;28;20050;-63
2021/05/31 00:51:08;;;;;;;6.72;5.25;;;;;;;8.76;62.10;95877.97;4951257;28;20090;-63
2021/05/31 00:53:34;;;;;;;6.63;5.30;;;;;;;8.72;61.94;95879.59;4952754;28;20485;-63
2021/05/31 00:56:00;;;;;;;6.72;6.13;;;;;;;8.67;62.18;95877.75;4951263;28;20078;-63
2021/05/31 00:58:28;;;;;;;7.47;5.10;;;;;;;8.54;62.45;95859.78;4951026;28;20067;-63
2021/05/31 01:00:59;;;;;;;5.43;4.93;;;;;;;8.53;62.58;95858.97;4950889;28;20031;-63
2021/05/31 01:03:25;;;;;;;5.82;5.22;;;;;;;8.55;62.87;95875.44;4950552;28;20427;-63
2021/05/31 01:05:51;;;;;;;5.65;5.10;;;;;;;8.54;63.46;95870.38;4951206;28;20085;-63
2021/05/31 01:08:29;;;;;;;6.00;5.22;;;;;;;8.54;63.07;95873.03;4952769;28;20413;-63
2021/05/31 01:11:13;;;;;;;6.20;5.63;;;;;;;8.26;63.69;95842.66;4950717;28;20058;-64
2021/05/31 01:13:54;;;;;;;6.97;5.50;;;;;;;8.38;63.91;95863.56;4950425;28;20138;-63
2021/05/31 01:16:26;;;;;;;6.57;4.97;;;;;;;8.40;64.56;95872.84;4949295;28;20687;-63
2021/05/31 01:18:53;;;;;;;7.22;5.70;;;;;;;8.29;64.74;95858.81;4950537;28;20039;-63
2021/05/31 01:21:37;;;;;;;7.38;6.00;;;;;;;8.43;64.67;95874.94;4949051;28;20047;-64
2021/05/31 01:24:13;;;;;;;6.28;5.68;;;;;;;8.36;64.47;95863.03;4950119;28;20074;-63
2021/05/31 01:27:17;;;;;;;6.55;5.40;;;;;;;8.22;66.46;95866.25;4952337;28;20589;-63
2021/05/31 01:29:47;;;;;;;5.78;5.18;;;;;;;8.31;66.17;95869.94;4933446;28;20588;-63
2021/05/31 01:32:14;;;;;;;6.15;5.55;;;;;;;8.21;66.07;95858.56;4950770;28;20043;-63
2021/05/31 01:34:42;;;;;;;6.50;5.10;;;;;;;8.24;66.54;95864.13;4951180;28;20023;-63
2021/05/31 01:37:15;;;;;;;5.75;5.18;;;;;;;8.26;66.38;95872.59;4951122;28;20035;-63
2021/05/31 01:39:44;;;;;;;6.65;5.15;;;;;;;8.30;65.99;95867.56;4950925;28;20071;-63
2021/05/31 01:42:10;;;;;;;6.00;5.47;;;;;;;8.34;65.50;95866.75;4950085;28;20083;-62
2021/05/31 01:44:35;;;;;;;8.75;5.97;;;;;;;8.19;67.12;95864.16;4952339;28;20027;-63
2021/05/31 01:47:01;;;;;;;6.30;5.70;;;;;;;8.12;67.65;95871.56;4950295;28;20050;-63
2021/05/31 01:49:27;;;;;;;7.70;6.88;;;;;;;8.19;66.52;95844.78;4950426;28;20047;-63
2021/05/31 01:51:53;;;;;;;7.90;6.00;;;;;;;8.27;66.20;95852.19;4949061;28;20497;-63
2021/05/31 01:54:21;;;;;;;6.75;5.47;;;;;;;8.21;65.81;95842.66;4949888;28;20043;-63
2021/05/31 01:56:49;;;;;;;5.82;5.22;;;;;;;8.21;66.36;95850.63;4948978;28;20027;-63
2021/05/31 01:59:18;;;;;;;8.85;5.88;;;;;;;8.07;65.73;95837.16;4952180;28;20051;-63
2021/05/31 02:01:43;;;;;;;5.90;5.30;;;;;;;8.06;66.01;95852.25;4950182;28;20110;-63
2021/05/31 02:04:09;;;;;;;6.32;5.82;;;;;;;7.97;67.15;95856.50;4949838;28;20055;-63
2021/05/31 02:06:34;;;;;;;6.00;5.38;;;;;;;8.00;66.33;95852.53;4950176;28;20031;-63
2021/05/31 02:08:59;;;;;;;7.30;5.38;;;;;;;7.91;66.41;95843.56;4948992;28;20039;-63
2021/05/31 02:11:32;;;;;;;6.35;5.68;;;;;;;7.97;66.16;95855.72;4951979;28;20023;-63
2021/05/31 02:14:02;;;;;;;6.45;5.78;;;;;;;7.92;66.42;95847.78;4949945;28;20035;-62
2021/05/31 02:16:33;;;;;;;5.90;5.38;;;;;;;7.88;66.29;95844.09;4950412;28;20035;-63
2021/05/31 02:19:02;;;;;;;7.78;5.85;;;;;;;7.84;66.96;95843.84;4950231;28;20533;-63
2021/05/31 02:21:28;;;;;;;6.43;5.03;;;;;;;7.67;66.54;95830.09;4948920;29;20378;-63
2021/05/31 02:23:54;;;;;;;6.72;5.65;;;;;;;7.73;67.09;95837.78;4950012;28;20449;-62
2021/05/31 02:26:21;;;;;;;6.57;5.97;;;;;;;7.78;67.08;95848.38;4951691;28;20039;-62
2021/05/31 02:28:48;;;;;;;6.95;6.25;;;;;;;7.69;67.25;95841.22;4950134;28;20035;-62
2021/05/31 02:31:17;;;;;;;6.28;5.57;;;;;;;7.72;67.18;95841.47;4950000;28;20090;-62
2021/05/31 02:33:45;;;;;;;8.15;6.53;;;;;;;7.61;67.47;95821.38;4949496;28;20051;-63
2021/05/31 02:36:11;;;;;;;7.30;5.80;;;;;;;7.66;66.81;95831.16;4949887;28;20046;-62
2021/05/31 02:38:38;;;;;;;6.70;6.00;;;;;;;7.62;67.41;95830.91;4954299;28;20106;-62
2021/05/31 02:41:03;;;;;;;7.97;5.70;;;;;;;7.59;67.01;95835.97;4953674;28;20042;-63
2021/05/31 02:43:28;;;;;;;6.70;6.10;;;;;;;7.55;67.88;95823.25;4953476;28;20044;-62
2021/05/31 02:45:54;;;;;;;7.35;6.30;;;;;;;7.56;67.17;95832.75;4953858;28;20110;-62
2021/05/31 02:48:19;;;;;;;7.15;6.47;;;;;;;7.52;67.24;95826.44;4953957;28;20057;-62
2021/05/31 02:50:45;;;;;;;6.80;6.10;;;;;;;7.49;67.54;95820.88;4955409;28;20026;-62
2021/05/31 02:53:10;;;;;;;7.22;6.30;;;;;;;7.50;67.41;95822.47;4953029;28;20402;-62
2021/05/31 02:55:37;;;;;;;6.85;6.15;;;;;;;7.49;67.55;95815.59;4953233;28;20485;-62
2021/05/31 02:58:03;;;;;;;6.72;5.85;;;;;;;7.33;67.53;95803.44;4953359;28;20069;-62
2021/05/31 03:00:29;;;;;;;7.43;6.53;;;;;;;7.46;68.06;95816.09;4953208;28;20516;-62
2021/05/31 03:02:56;;;;;;;8.70;6.15;;;;;;;7.32;68.09;95805.28;4952642;28;20035;-63
2021/05/31 03:05:28;;;;;;;9.07;6.35;;;;;;;7.30;67.68;95805.53;4954975;28;20110;-62
2021/05/31 03:07:54;;;;;;;6.78;5.93;;;;;;;7.39;68.12;95819.03;4953089;28;20054;-62
2021/05/31 03:10:20;;;;;;;6.32;5.72;;;;;;;7.33;67.86;95811.38;4953091;28;20036;-63
2021/05/31 03:12:46;;;;;;;7.65;6.57;;;;;;;7.29;69.03;95811.91;4952573;28;20094;-63
2021/05/31 03:15:16;;;;;;;9.10;6.63;;;;;;;7.34;68.58;95810.31;4952984;28;20066;-62
2021/05/31 03:17:41;;;;;;;9.60;6.70;;;;;;;7.21;69.14;95801.84;4954812;28;20034;-62
2021/05/31 03:20:08;;;;;;;6.80;6.18;;;;;;;7.25;68.71;95802.91;4934558;28;20036;-62
2021/05/31 03:22:34;;;;;;;7.40;5.95;;;;;;;7.27;68.94;95806.09;4947370;28;20098;-63
2021/05/31 03:24:59;;;;;;;7.63;6.70;;;;;;;7.37;69.16;95825.63;4952563;28;20122;-63
2021/05/31 03:27:25;;;;;;;8.48;6.40;;;;;;;7.34;68.55;95810.31;4952856;28;20046;-64
2021/05/31 03:29:50;;;;;;;7.05;6.35;;;;;;;7.40;69.30;95817.19;4952698;28;20030;-63
2021/05/31 03:32:16;;;;;;;9.18;6.88;;;;;;;7.40;68.24;95817.19;4953886;28;20494;-62
2021/05/31 03:34:41;;;;;;;8.57;6.88;;;;;;;7.38;68.40;95817.47;4951497;28;20035;-63
2021/05/31 03:37:07;;;;;;;8.38;6.50;;;;;;;7.38;68.69;95817.47;4952664;28;20062;-63
2021/05/31 03:39:32;;;;;;;8.02;6.47;;;;;;;7.39;68.65;95816.38;4951633;28;20086;-63
2021/05/31 03:41:58;;;;;;;9.35;6.93;;;;;;;7.43;68.50;95822.75;4952409;28;20027;-63
2021/05/31 03:44:23;;;;;;;7.80;6.20;;;;;;;7.43;68.76;95814.81;4953985;28;20031;-65
2021/05/31 03:46:48;;;;;;;8.10;5.63;;;;;;;7.46;68.34;95808.97;4952549;28;20051;-63
2021/05/31 03:49:14;;;;;;;8.65;6.75;;;;;;;7.41;68.86;95787.78;4952285;28;20405;-63
2021/05/31 03:51:39;;;;;;;6.75;6.05;;;;;;;7.40;69.55;95811.88;4952334;28;20051;-63
2021/05/31 03:54:05;;;;;;;7.07;6.32;;;;;;;7.61;69.24;95816.09;4951885;28;20118;-62
2021/05/31 03:56:30;;;;;;;7.72;6.70;;;;;;;7.69;68.63;95809.47;4954081;28;20034;-62
2021/05/31 03:58:55;;;;;;;7.45;6.75;;;;;;;7.74;67.90;95790.91;4951115;28;20585;-63
2021/05/31 04:01:21;;;;;;;7.13;6.45;;;;;;;8.00;67.99;95800.34;4952130;28;20043;-63
2021/05/31 04:03:47;;;;;;;5.95;4.95;;;;;;;8.35;67.53;95801.25;4951461;28;20062;-62
2021/05/31 04:11:40;;;;;;;5.47;4.55;;;;;;;9.55;63.30;95778.59;4953932;29;20179;-63
2021/05/31 04:14:17;;;;;;;5.38;4.53;;;;;;;10.12;61.87;95792.06;4951457;28;20039;-63
2021/05/31 04:16:45;;;;;;;4.72;4.32;;;;;;;10.41;60.23;95782.16;4951914;28;20054;-63
2021/05/31 04:19:11;;;;;;;4.70;4.30;;;;;;;10.69;59.19;95768.97;4951909;28;20062;-63
2021/05/31 04:21:39;;;;;;;6.68;4.53;;;;;;;11.08;58.78;95789.16;4951777;28;20039;-63
2021/05/31 04:24:05;;;;;;;4.50;4.07;;;;;;;11.39;57.51;95789.44;4951211;28;20686;-63
2021/05/31 04:26:35;;;;;;;5.28;4.40;;;;;;;11.63;56.67;95799.97;4953322;28;20046;-63
2021/05/31 04:29:02;;;;;;;5.63;4.53;;;;;;;11.81;55.63;95791.09;4951543;28;20284;-63
2021/05/31 04:31:28;;;;;;;4.13;3.83;;;;;;;11.89;54.29;95787.78;4951494;28;20097;-63
2021/05/31 04:33:53;;;;;;;5.43;4.53;;;;;;;12.19;54.99;95786.38;4951217;28;20126;-63
2021/05/31 04:36:19;;;;;;;4.97;4.57;;;;;;;12.38;54.16;95788.13;4951712;28;20176;-63
2021/05/31 04:38:44;;;;;;;6.28;4.72;;;;;;;12.51;53.86;95775.84;4953341;28;20036;-63
2021/05/31 04:41:09;;;;;;;5.03;4.43;;;;;;;12.67;53.17;95774.44;4951216;28;20203;-63
2021/05/31 04:43:35;;;;;;;9.73;4.22;;;;;;;12.85;53.05;95775.38;4950708;28;20371;-63
2021/05/31 04:46:00;;;;;;;5.65;4.07;;;;;;;13.07;52.43;95775.38;4951137;28;20133;-63
2021/05/31 04:48:26;;;;;;;6.22;4.25;;;;;;;13.17;52.64;95771.66;4949625;28;20046;-64
2021/05/31 04:50:57;;;;;;;5.10;4.70;;;;;;;13.18;52.11;95763.34;4950859;28;20110;-63
2021/05/31 04:53:27;;;;;;;4.60;4.03;;;;;;;13.39;51.92;95768.22;4952562;28;20050;-64
2021/05/31 04:55:54;;;;;;;4.70;4.30;;;;;;;13.47;51.01;95776.28;4950803;28;20106;-64
2021/05/31 04:58:19;;;;;;;6.10;4.10;;;;;;;13.62;50.79;95777.00;4950805;28;20130;-64
2021/05/31 05:00:45;;;;;;;4.97;4.22;;;;;;;13.47;51.20;95773.63;4950356;28;20122;-63
2021/05/31 05:03:10;;;;;;;4.68;4.28;;;;;;;13.71;51.24;95783.94;4950383;28;20039;-63
2021/05/31 05:05:36;;;;;;;5.13;4.20;;;;;;;13.68;50.82;95765.84;4952649;28;20492;-64
2021/05/31 05:08:01;;;;;;;11.65;4.28;;;;;;;13.85;50.42;95789.19;4950846;28;20079;-61
2021/05/31 05:10:27;;;;;;;5.07;4.63;;;;;;;13.46;50.06;95780.06;4950478;28;20047;-66
2021/05/31 05:12:53;;;;;;;4.68;4.28;;;;;;;13.63;50.16;95776.69;4949083;28;20050;-64
2021/05/31 05:15:21;;;;;;;5.60;4.32;;;;;;;13.79;50.24;95788.53;4950811;28;20039;-65
2021/05/31 05:17:47;;;;;;;5.22;4.75;;;;;;;13.48;49.90;95769.84;4952650;28;20037;-64
2021/05/31 05:20:14;;;;;;;5.30;4.03;;;;;;;13.45;50.27;95791.03;4950702;28;20043;-64
2021/05/31 05:22:39;;;;;;;5.93;5.53;;;;;;;13.36;50.40;95780.31;4948563;28;20039;-64
2021/05/31 05:25:06;;;;;;;5.40;4.75;;;;;;;13.23;50.17;95783.84;4950413;28;20160;-65
2021/05/31 05:27:32;;;;;;;5.35;4.78;;;;;;;13.15;50.66;95795.22;4950335;28;20035;-64
2021/05/31 05:29:57;;;;;;;5.57;4.72;;;;;;;13.10;50.90;95787.31;4950781;28;20115;-65
2021/05/31 05:32:22;;;;;;;5.05;4.65;;;;;;;13.38;51.38;95788.00;4951950;28;20084;-63
2021/05/31 05:34:50;;;;;;;5.40;5.00;;;;;;;13.36;50.71;95788.34;4950504;28;20031;-62
2021/05/31 05:37:21;;;;;;;6.78;5.82;;;;;;;13.35;50.58;95783.28;4950426;28;20039;-66
2021/05/31 05:49:41;;;;;;;8.57;6.18;;;;;;;13.22;50.15;95780.38;4950595;28;20098;-63
2021/05/31 05:52:08;;;;;;;17.73;12.32;;;;;;;13.29;52.10;95787.94;4950077;28;20035;-58
2021/05/31 05:54:33;;;;;;;14.30;11.60;;;;;;;13.42;54.90;95792.44;4946849;28;20134;-59
2021/05/31 05:56:59;;;;;;;6.80;5.72;;;;;;;13.39;51.17;95792.25;4949038;28;20114;-72
2021/05/31 05:59:24;;;;;;;6.88;6.20;;;;;;;13.18;51.20;95773.25;4952521;28;20042;-62
2021/05/31 06:01:50;;;;;;;9.35;6.60;;;;;;;13.26;51.07;95788.59;4934370;28;20071;-70
2021/05/31 06:04:16;;;;;;;5.90;5.40;;;;;;;13.31;50.89;95768.94;4930986;29;20044;-69
2021/05/31 06:06:44;;;;;;;7.25;6.25;;;;;;;13.36;50.90;95790.19;4938931;28;20461;-68
2021/05/31 06:09:12;;;;;;;7.32;6.22;;;;;;;13.40;51.55;95775.91;4950136;28;20050;-68
2021/05/31 06:11:38;;;;;;;7.63;6.55;;;;;;;13.37;52.58;95787.22;4952966;28;20035;-58
2021/05/31 06:14:03;;;;;;;6.97;6.25;;;;;;;13.55;51.74;95784.63;4953847;28;20508;-67
2021/05/31 06:16:28;;;;;;;7.88;6.40;;;;;;;13.68;51.22;95786.44;4954074;28;20067;-66
2021/05/31 06:18:54;;;;;;;6.75;6.05;;;;;;;13.69;51.50;95796.03;4953842;28;20082;-64
2021/05/31 06:21:19;;;;;;;6.22;5.40;;;;;;;13.60;50.28;95782.63;4953018;28;20039;-66
2021/05/31 06:23:44;;;;;;;6.45;5.55;;;;;;;13.77;49.93;95790.75;4955423;28;20045;-66
2021/05/31 06:26:10;;;;;;;6.75;6.05;;;;;;;13.87;49.60;95781.66;4953629;28;20043;-66
2021/05/31 06:28:35;;;;;;;8.52;5.55;;;;;;;13.90;49.27;95777.56;4938322;28;20031;-65
2021/05/31 06:31:00;;;;;;;5.97;5.45;;;;;;;13.97;49.69;95773.38;4943985;28;20090;-65
2021/05/31 06:33:26;;;;;;;5.72;5.28;;;;;;;14.19;48.92;95788.53;4953174;28;20043;-65
2021/05/31 06:35:52;;;;;;;6.45;5.60;;;;;;;14.08;50.07;95789.13;4953592;28;20065;-65
2021/05/31 06:38:18;;;;;;;6.15;5.32;;;;;;;14.36;48.95;95784.31;4954470;28;20027;-65
2021/05/31 06:40:43;;;;;;;7.28;5.25;;;;;;;14.44;47.44;95789.69;4953937;28;20039;-69
2021/05/31 06:43:09;;;;;;;6.00;5.47;;;;;;;14.39;47.99;95776.47;4953416;28;20489;-65
2021/05/31 06:45:34;;;;;;;7.70;5.75;;;;;;;14.63;48.37;95789.41;4953514;28;20067;-66
2021/05/31 06:48:02;;;;;;;6.10;5.60;;;;;;;14.64;47.45;95785.66;4952340;28;20035;-65
2021/05/31 06:50:30;;;;;;;6.75;5.80;;;;;;;14.55;47.39;95782.97;4953886;29;20024;-64
2021/05/31 06:52:56;;;;;;;6.25;5.60;;;;;;;14.25;48.54;95767.78;4952557;28;20058;-64
2021/05/31 06:55:24;;;;;;;5.72;5.18;;;;;;;14.37;48.54;95785.88;4953001;28;20094;-65
2021/05/31 06:57:50;;;;;;;5.22;4.82;;;;;;;14.43;48.14;95781.97;4953400;28;20031;-65
2021/05/31 07:00:18;;;;;;;5.03;4.63;;;;;;;14.68;45.96;95777.78;4953121;28;20089;-65
2021/05/31 07:02:44;;;;;;;5.78;5.28;;;;;;;14.65;46.66;95773.84;4953249;29;20027;-65
2021/05/31 07:05:10;;;;;;;5.57;5.05;;;;;;;14.77;46.44;95782.03;4951591;28;20031;-64
2021/05/31 07:07:37;;;;;;;5.28;4.68;;;;;;;14.76;45.93;95782.34;4953158;28;20101;-64
2021/05/31 07:10:05;;;;;;;5.65;4.72;;;;;;;15.01;46.11;95780.78;4951897;29;20051;-64
2021/05/31 07:12:30;;;;;;;4.85;4.45;;;;;;;14.97;45.71;95769.91;4952478;28;20148;-66
2021/05/31 07:14:56;;;;;;;5.47;5.03;;;;;;;15.12;45.43;95782.03;4952697;28;20491;-65
2021/05/31 07:17:22;;;;;;;6.57;5.20;;;;;;;15.21;45.64;95771.31;4954808;28;20027;-65
2021/05/31 07:19:48;;;;;;;5.30;4.90;;;;;;;15.11;45.90;95771.66;4951449;28;20039;-64
2021/05/31 07:22:27;;;;;;;5.78;4.80;;;;;;;15.08;46.05;95767.69;4951887;28;20048;-64
2021/05/31 07:24:53;;;;;;;7.85;5.18;;;;;;;15.05;45.38;95760.31;4952692;28;20134;-65
2021/05/31 07:27:20;;;;;;;5.60;4.90;;;;;;;15.01;46.15;95791.50;4952466;28;20474;-65
2021/05/31 07:29:45;;;;;;;5.10;4.70;;;;;;;15.18;45.80;95793.38;4954592;28;20477;-65
2021/05/31 07:32:11;;;;;;;8.20;5.00;;;;;;;14.91;45.24;95787.25;4950718;29;20057;-64
2021/05/31 07:34:37;;;;;;;5.25;4.85;;;;;;;15.04;45.42;95785.50;4951307;28;20035;-67
2021/05/31 07:37:03;;;;;;;4.68;4.38;;;;;;;14.90;45.13;95772.28;4952527;28;20556;-65
2021/05/31 07:39:28;;;;;;;5.13;4.63;;;;;;;14.61;45.53;95766.75;4952917;28;20059;-73
2021/05/31 07:41:54;;;;;;;4.15;3.78;;;;;;;14.83;45.57;95771.94;4951353;28;20413;-67
2021/05/31 07:44:20;;;;;;;5.10;4.63;;;;;;;14.72;45.17;95787.56;4953967;28;20031;-69
2021/05/31 07:46:45;;;;;;;4.82;4.32;;;;;;;14.91;44.98;95773.06;4952416;28;20066;-66
2021/05/31 07:49:11;;;;;;;4.10;3.47;;;;;;;14.93;45.00;95795.75;4951315;28;20153;-67
2021/05/31 07:51:41;;;;;;;4.63;3.60;;;;;;;14.48;44.98;95773.81;4952451;28;20053;-67
2021/05/31 07:54:07;;;;;;;3.85;3.55;;;;;;;14.45;44.72;95775.22;4938344;28;20051;-66
2021/05/31 07:56:33;;;;;;;5.85;3.63;;;;;;;14.17;45.37;95788.03;4935049;29;20066;-67
2021/05/31 07:58:58;;;;;;;4.28;3.88;;;;;;;14.32;45.10;95784.16;4933180;28;20402;-67
2021/05/31 08:01:24;;;;;;;5.25;3.30;;;;;;;14.57;45.36;95785.31;4933193;28;20082;-68
2021/05/31 08:03:50;;;;;;;4.10;3.70;;;;;;;14.73;43.21;95783.75;4932478;28;20053;-65
2021/05/31 08:06:15;;;;;;;4.50;3.40;;;;;;;14.71;42.86;95775.28;4933961;28;20036;-67
2021/05/31 08:08:42;;;;;;;3.95;3.65;;;;;;;14.40;44.00;95787.97;4938262;29;20445;-65
2021/05/31 08:11:08;;;;;;;6.22;3.47;;;;;;;13.96;44.61;95774.44;4933516;28;20062;-64
2021/05/31 08:13:34;;;;;;;2.80;2.60;;;;;;;14.48;43.27;95774.59;4932701;29;20080;-67
2021/05/31 08:16:00;;;;;;;3.25;3.05;;;;;;;14.72;44.04;95784.09;4933091;28;20078;-65
2021/05/31 08:18:26;;;;;;;4.95;3.80;;;;;;;14.28;44.67;95786.69;4932950;28;20063;-69
2021/05/31 08:20:51;;;;;;;3.90;3.60;;;;;;;14.54;44.50;95784.06;4932704;28;20112;-65
2021/05/31 08:23:17;;;;;;;4.00;3.70;;;;;;;14.86;42.46;95794.66;4934288;29;20714;-69
2021/05/31 08:25:43;;;;;;;5.90;3.20;;;;;;;14.99;42.28;95751.63;4931168;28;20401;-64
2021/05/31 08:28:08;;;;;;;4.80;2.88;;;;;;;14.98;42.57;95768.00;4932203;29;20039;-68
2021/05/31 08:30:35;;;;;;;4.25;3.15;;;;;;;15.15;42.62;95769.88;4930794;28;20044;-70
2021/05/31 08:33:01;;;;;;;3.28;2.97;;;;;;;15.23;41.03;95751.13;4931589;28;20027;-73
2021/05/31 08:35:27;;;;;;;3.38;3.08;;;;;;;15.53;40.66;95753.91;4933551;29;20056;-65
2021/05/31 08:37:53;;;;;;;4.03;2.88;;;;;;;15.60;41.25;95776.41;4932557;28;20796;-69
2021/05/31 08:40:19;;;;;;;4.07;3.25;;;;;;;15.81;41.29;95773.06;4932265;28;20055;-68
2021/05/31 08:42:46;;;;;;;3.53;3.08;;;;;;;15.59;41.77;95772.16;4932059;28;20494;-65
2021/05/31 08:45:18;;;;;;;4.57;3.35;;;;;;;16.11;42.00;95787.31;4932415;28;20071;-63
2021/05/31 08:47:45;;;;;;;;;;;;;;;16.13;40.56;95782.41;4934714;29;20136;-64
2021/05/31 08:50:16;;;;;;;7.38;3.13;;;;;;;16.25;40.57;95774.44;4932365;28;19958;-63
2021/05/31 08:52:42;;;;;;;4.68;3.53;;;;;;;16.51;39.48;95768.94;4930473;28;20032;-63
2021/05/31 08:55:10;;;;;;;5.28;4.60;;;;;;;16.46;40.29;95771.81;4932119;28;20051;-64
2021/05/31 08:57:35;;;;;;;5.13;4.63;;;;;;;16.33;41.19;95765.56;4931993;28;20028;-70
2021/05/31 09:00:04;;;;;;;5.38;4.55;;;;;;;16.26;42.14;95767.19;4930651;28;20028;-68
2021/05/31 09:02:33;;;;;;;4.30;3.90;;;;;;;16.27;41.77;95766.06;4933414;29;20031;-63
2021/05/31 09:04:59;;;;;;;5.28;4.22;;;;;;;15.75;43.58;95766.31;4931983;28;20083;-64
2021/05/31 09:07:25;;;;;;;3.88;3.58;;;;;;;15.81;42.81;95756.97;4931878;28;20043;-66
2021/05/31 09:09:53;;;;;;;4.82;3.33;;;;;;;16.05;41.08;95775.19;4931773;28;20040;-66
2021/05/31 09:12:24;;;;;;;5.90;4.03;;;;;;;16.25;40.82;95777.13;4931086;28;20043;-67
2021/05/31 09:14:57;;;;;;;4.10;3.80;;;;;;;15.44;43.62;95770.00;4931524;28;20020;-68
2021/05/31 09:17:32;;;;;;;7.32;4.05;;;;;;;15.62;43.23;95761.91;4932348;29;20016;-66
2021/05/31 09:19:58;;;;;;;5.43;4.57;;;;;;;15.80;42.23;95771.50;4931718;28;20036;-66
2021/05/31 09:22:24;;;;;;;4.65;3.72;;;;;;;15.82;43.37;95783.50;4931352;28;20511;-67
2021/05/31 09:24:55;;;;;;;4.93;4.50;;;;;;;14.74;44.65;95757.75;4930515;29;20042;-66
2021/05/31 09:27:20;;;;;;;5.10;4.70;;;;;;;15.25;44.58;95766.88;4931788;28;20043;-66
2021/05/31 09:30:00;;;;;;;4.68;4.28;;;;;;;15.30;44.25;95756.81;4932264;29;20028;-65
2021/05/31 09:32:27;;;;;;;4.95;4.53;;;;;;;15.13;44.67;95745.31;4931491;29;20059;-70
2021/05/31 09:35:07;;;;;;;4.25;3.95;;;;;;;15.77;43.87;95772.94;4931271;28;20063;-70
2021/05/31 09:37:45;;;;;;;3.90;3.55;;;;;;;16.05;40.82;95775.97;4931371;28;20410;-68
2021/05/31 09:40:11;;;;;;;4.15;3.85;;;;;;;16.27;41.67;95779.50;4929977;28;20067;-69
2021/05/31 09:42:47;;;;;;;4.95;4.55;;;;;;;16.17;42.13;95771.81;4931121;28;20035;-70
2021/05/31 09:45:13;;;;;;;6.63;4.20;;;;;;;16.55;41.85;95774.44;4931547;28;20691;-70
2021/05/31 09:47:40;;;;;;;5.38;4.97;;;;;;;16.34;40.61;95758.31;4933144;29;20040;-71
2021/05/31 09:50:07;;;;;;;4.80;4.40;;;;;;;15.88;42.48;95745.75;4931213;28;20115;-70
2021/05/31 09:52:34;;;;;;;4.30;4.00;;;;;;;16.20;41.04;95760.44;4930888;28;20032;-72
2021/05/31 09:55:06;;;;;;;4.60;4.20;;;;;;;16.04;41.88;95742.19;4931106;28;20032;-72
2021/05/31 09:57:35;;;;;;;5.05;4.65;;;;;;;16.01;41.28;95761.63;4930907;28;20047;-71
2021/05/31 10:00:17;;;;;;;7.30;4.40;;;;;;;16.41;41.66;95772.00;4931128;28;20482;-71
2021/05/31 10:10:35;;;;;;;5.07;3.55;;;;;;;15.31;41.31;95749.53;4931387;28;20032;-71
2021/05/31 10:13:00;;;;;;;4.30;3.90;;;;;;;15.83;42.00;95766.28;4930624;28;20040;-70
2021/05/31 10:15:31;;;;;;;4.32;4.03;;;;;;;15.86;40.25;95744.16;4930010;28;20062;-71
2021/05/31 10:17:58;;;;;;;4.45;4.15;;;;;;;15.96;41.03;95753.75;4931023;28;20496;-71
2021/05/31 10:20:25;;;;;;;4.15;3.80;;;;;;;15.92;41.15;95766.25;4933068;29;20482;-71
2021/05/31 10:22:51;;;;;;;4.03;3.60;;;;;;;15.78;41.18;95754.94;4930649;28;20089;-71
2021/05/31 10:25:18;;;;;;;3.97;3.63;;;;;;;15.91;40.44;95756.63;4929632;28;20712;-72
2021/05/31 10:27:45;;;;;;;4.22;3.83;;;;;;;16.05;40.17;95745.66;4929744;29;20518;-71
2021/05/31 10:30:15;;;;;;;4.00;3.70;;;;;;;16.23;39.76;95760.59;4928555;28;20040;-71
2021/05/31 10:32:41;;;;;;;4.97;4.13;;;;;;;16.36;39.01;95734.59;4931203;29;20454;-77
2021/05/31 10:35:14;;;;;;;4.28;3.97;;;;;;;16.18;40.33;95750.03;4929765;29;20127;-71
2021/05/31 10:37:40;;;;;;;4.65;4.35;;;;;;;16.18;40.26;95738.50;4931104;28;20477;-73
2021/05/31 10:40:09;;;;;;;4.00;3.25;;;;;;;16.58;38.96;95747.72;4928678;28;20079;-72
2021/05/31 10:42:43;;;;;;;5.00;3.65;;;;;;;16.02;39.69;95752.47;4930732;28;20528;-72
2021/05/31 10:45:18;;;;;;;3.63;3.15;;;;;;;16.55;39.78;95750.28;4930904;28;20040;-71
2021/05/31 10:48:12;;;;;;;3.60;3.20;;;;;;;16.79;38.14;95736.22;4932902;29;20046;-70
2021/05/31 10:50:43;;;;;;;4.15;3.75;;;;;;;17.16;38.80;95747.91;4931389;29;20048;-69
2021/05/31 10:53:31;;;;;;;3.47;3.00;;;;;;;16.72;37.87;95750.16;4930599;28;20725;-71
2021/05/31 10:56:04;;;;;;;3.47;3.17;;;;;;;16.63;38.78;95738.66;4929979;29;20048;-71
2021/05/31 10:58:35;;;;;;;3.15;2.85;;;;;;;16.95;37.67;95756.00;4932799;28;20122;-70
2021/05/31 11:01:09;;;;;;;3.75;3.50;;;;;;;17.25;37.75;95747.81;4934135;28;20104;-70
2021/05/31 11:04:01;;;;;;;3.80;3.50;;;;;;;17.47;37.61;95735.91;4933537;28;20028;-71
2021/05/31 11:06:30;;;;;;;3.53;3.20;;;;;;;17.37;36.48;95745.16;4933873;28;20040;-71
2021/05/31 11:09:16;;;;;;;4.93;3.25;;;;;;;17.24;36.44;95733.59;4932750;28;20469;-71
2021/05/31 11:11:55;;;;;;;4.25;3.95;;;;;;;16.91;38.09;95743.56;4935786;29;20028;-71
2021/05/31 11:14:44;;;;;;;3.95;3.58;;;;;;;17.13;38.28;95749.34;4932630;29;20075;-72
2021/05/31 11:17:14;;;;;;;4.43;4.03;;;;;;;16.87;37.81;95751.47;4932872;28;20446;-71
2021/05/31 11:19:45;;;;;;;4.10;3.80;;;;;;;16.75;36.19;95732.63;4932717;29;20642;-70
2021/05/31 11:22:16;;;;;;;3.85;3.53;;;;;;;16.72;36.84;95735.94;4932090;28;20434;-71
2021/05/31 11:25:09;;;;;;;4.30;3.28;;;;;;;16.56;38.21;95743.78;4932477;28;20067;-70
2021/05/31 11:27:39;;;;;;;3.45;3.15;;;;;;;16.60;34.92;95736.66;4933290;28;20035;-71
2021/05/31 11:30:07;;;;;;;3.55;2.70;;;;;;;17.19;35.25;95741.84;4933431;28;20067;-71
2021/05/31 11:32:33;;;;;;;4.50;3.30;;;;;;;17.24;34.80;95730.09;4935151;29;20034;-72
2021/05/31 11:35:14;;;;;;;3.03;2.83;;;;;;;16.80;36.44;95721.69;4932453;28;20035;-71
2021/05/31 11:37:41;;;;;;;4.00;3.22;;;;;;;16.94;36.40;95738.31;4933643;28;20036;-71
2021/05/31 11:40:16;;;;;;;5.65;2.83;;;;;;;17.20;36.02;95730.00;4933241;28;20042;-70
2021/05/31 11:42:44;;;;;;;4.63;3.50;;;;;;;17.19;35.99;95735.69;4933342;28;20044;-70
2021/05/31 11:45:10;;;;;;;5.05;3.10;;;;;;;17.25;35.74;95740.56;4932832;28;20513;-74
2021/05/31 11:47:35;;;;;;;4.20;3.22;;;;;;;17.28;35.51;95725.66;4936734;29;20114;-80
2021/05/31 11:50:00;;;;;;;3.42;3.03;;;;;;;17.56;34.86;95704.31;4933701;28;20122;-66
2021/05/31 11:52:28;;;;;;;4.07;2.83;;;;;;;17.90;36.42;95725.44;4932958;28;20051;-66
2021/05/31 11:54:54;;;;;;;6.97;2.65;;;;;;;17.92;33.92;95733.19;4933281;28;20040;-67
2021/05/31 11:57:21;;;;;;;2.78;2.50;;;;;;;17.80;31.54;95708.94;4931931;28;20050;-66
2021/05/31 11:59:53;;;;;;;2.90;2.70;;;;;;;17.88;32.58;95722.31;4933255;28;20098;-66
2021/05/31 12:02:20;;;;;;;3.42;2.63;;;;;;;18.20;33.48;95727.91;4934610;29;20024;-67
2021/05/31 12:04:48;;;;;;;2.25;2.15;;;;;;;18.34;33.29;95722.16;4932606;28;20118;-66